sensor_id;sensor_type;location;lat;lon;timestamp;pressure;altitude;pressure_sealevel;temperature;humidity
42385;BME280;28042;43.986;22.860;2023-05-18T00:00:33;100939.47;;;13.13;100.00
42385;BME280;28042;43.986;22.860;2023-05-18T00:02:59;100945.78;;;13.13;100.00
42385;BME280;28042;43.986;22.860;2023-05-18T00:05:26;100943.22;;;13.05;100.00
42385;BME280;28042;43.986;22.860;2023-05-18T00:07:51;100949.94;;;13.02;100.00
42385;BME280;28042;43.986;22.860;2023-05-18T00:10:17;100951.22;;;13.00;100.00
42385;BME280;28042;43.986;22.860;2023-05-18T00:12:42;100948.28;;;12.95;100.00
42385;BME280;28042;43.986;22.860;2023-05-18T00:15:08;100948.03;;;12.90;100.00
42385;BME280;28042;43.986;22.860;2023-05-18T00:17:34;100951.59;;;12.84;100.00
42385;BME280;28042;43.986;22.860;2023-05-18T00:19:59;100968.03;;;12.84;100.00
42385;BME280;28042;43.986;22.860;2023-05-18T00:22:25;100964.66;;;12.82;100.00
42385;BME280;28042;43.986;22.860;2023-05-18T00:24:51;100965.50;;;12.82;100.00
42385;BME280;28042;43.986;22.860;2023-05-18T00:27:16;100978.56;;;12.80;100.00
42385;BME280;28042;43.986;22.860;2023-05-18T00:29:41;100967.16;;;12.77;100.00
42385;BME280;28042;43.986;22.860;2023-05-18T00:32:07;100966.53;;;12.74;100.00
42385;BME280;28042;43.986;22.860;2023-05-18T00:34:32;100972.44;;;12.78;100.00
42385;BME280;28042;43.986;22.860;2023-05-18T00:36:57;100966.94;;;12.71;100.00
42385;BME280;28042;43.986;22.860;2023-05-18T00:39:23;100974.53;;;12.69;100.00
42385;BME280;28042;43.986;22.860;2023-05-18T00:41:48;100979.34;;;12.67;100.00
42385;BME280;28042;43.986;22.860;2023-05-18T00:44:13;100976.41;;;12.69;100.00
42385;BME280;28042;43.986;22.860;2023-05-18T00:46:39;100972.63;;;12.70;100.00
42385;BME280;28042;43.986;22.860;2023-05-18T00:49:05;100983.16;;;12.73;100.00
42385;BME280;28042;43.986;22.860;2023-05-18T00:51:31;100982.31;;;12.72;100.00
42385;BME280;28042;43.986;22.860;2023-05-18T00:53:57;100974.53;;;12.76;100.00
42385;BME280;28042;43.986;22.860;2023-05-18T00:56:23;100972.25;;;12.80;100.00
42385;BME280;28042;43.986;22.860;2023-05-18T00:58:52;100973.28;;;12.85;100.00
42385;BME280;28042;43.986;22.860;2023-05-18T01:01:28;100968.88;;;12.91;100.00
42385;BME280;28042;43.986;22.860;2023-05-18T01:03:54;100970.56;;;12.92;100.00
42385;BME280;28042;43.986;22.860;2023-05-18T01:06:26;100962.16;;;12.93;100.00
42385;BME280;28042;43.986;22.860;2023-05-18T01:08:52;100965.97;;;12.99;100.00
42385;BME280;28042;43.986;22.860;2023-05-18T01:16:19;100967.66;;;13.00;100.00
42385;BME280;28042;43.986;22.860;2023-05-18T01:18:53;100965.53;;;13.02;100.00
42385;BME280;28042;43.986;22.860;2023-05-18T01:21:37;100966.38;;;12.96;100.00
42385;BME280;28042;43.986;22.860;2023-05-18T01:26:49;100984.44;;;12.84;100.00
42385;BME280;28042;43.986;22.860;2023-05-18T01:29:21;100985.94;;;12.80;100.00
42385;BME280;28042;43.986;22.860;2023-05-18T01:31:47;100989.47;;;12.73;100.00
42385;BME280;28042;43.986;22.860;2023-05-18T01:34:12;100992.00;;;12.68;100.00
42385;BME280;28042;43.986;22.860;2023-05-18T01:36:37;101003.34;;;12.65;100.00
42385;BME280;28042;43.986;22.860;2023-05-18T01:39:02;101002.06;;;12.61;100.00
42385;BME280;28042;43.986;22.860;2023-05-18T01:41:28;101005.00;;;12.60;100.00
42385;BME280;28042;43.986;22.860;2023-05-18T01:46:33;101011.69;;;12.51;100.00
42385;BME280;28042;43.986;22.860;2023-05-18T01:49:04;101022.19;;;12.47;100.00
42385;BME280;28042;43.986;22.860;2023-05-18T01:51:31;101023.03;;;12.48;100.00
42385;BME280;28042;43.986;22.860;2023-05-18T01:54:07;101019.03;;;12.50;100.00
42385;BME280;28042;43.986;22.860;2023-05-18T01:56:32;101026.88;;;12.53;100.00
42385;BME280;28042;43.986;22.860;2023-05-18T01:58:59;101020.97;;;12.56;100.00
42385;BME280;28042;43.986;22.860;2023-05-18T02:01:25;101016.56;;;12.55;100.00
42385;BME280;28042;43.986;22.860;2023-05-18T02:03:50;101017.19;;;12.57;100.00
42385;BME280;28042;43.986;22.860;2023-05-18T02:06:16;101018.03;;;12.58;100.00
42385;BME280;28042;43.986;22.860;2023-05-18T02:08:41;101017.19;;;12.57;100.00
42385;BME280;28042;43.986;22.860;2023-05-18T02:11:07;101017.81;;;12.59;100.00
42385;BME280;28042;43.986;22.860;2023-05-18T02:13:32;101018.88;;;12.58;100.00
42385;BME280;28042;43.986;22.860;2023-05-18T02:15:57;101017.19;;;12.57;100.00
42385;BME280;28042;43.986;22.860;2023-05-18T02:18:23;101026.03;;;12.59;100.00
42385;BME280;28042;43.986;22.860;2023-05-18T02:20:56;101027.09;;;12.58;100.00
42385;BME280;28042;43.986;22.860;2023-05-18T02:23:22;101028.97;;;12.58;100.00
42385;BME280;28042;43.986;22.860;2023-05-18T02:25:47;101028.13;;;12.57;100.00
42385;BME280;28042;43.986;22.860;2023-05-18T02:28:13;101035.28;;;12.58;100.00
42385;BME280;28042;43.986;22.860;2023-05-18T02:30:38;101034.25;;;12.59;100.00
42385;BME280;28042;43.986;22.860;2023-05-18T02:33:03;101031.50;;;12.59;100.00
42385;BME280;28042;43.986;22.860;2023-05-18T02:35:29;101033.22;;;12.60;100.00
42385;BME280;28042;43.986;22.860;2023-05-18T02:37:54;101032.78;;;12.57;100.00
42385;BME280;28042;43.986;22.860;2023-05-18T02:40:22;101029.81;;;12.52;100.00
42385;BME280;28042;43.986;22.860;2023-05-18T02:42:47;101037.81;;;12.53;100.00
42385;BME280;28042;43.986;22.860;2023-05-18T02:45:12;101044.50;;;12.51;100.00
42385;BME280;28042;43.986;22.860;2023-05-18T02:47:38;101043.66;;;12.50;100.00
42385;BME280;28042;43.986;22.860;2023-05-18T02:50:03;101047.88;;;12.46;100.00
42385;BME280;28042;43.986;22.860;2023-05-18T02:52:29;101053.75;;;12.43;100.00
42385;BME280;28042;43.986;22.860;2023-05-18T02:54:54;101063.00;;;12.42;100.00
42385;BME280;28042;43.986;22.860;2023-05-18T02:57:20;101066.41;;;12.44;100.00
42385;BME280;28042;43.986;22.860;2023-05-18T02:59:46;101060.50;;;12.47;100.00
42385;BME280;28042;43.986;22.860;2023-05-18T03:02:11;101067.66;;;12.48;100.00
42385;BME280;28042;43.986;22.860;2023-05-18T03:04:40;101069.75;;;12.46;100.00
42385;BME280;28042;43.986;22.860;2023-05-18T03:07:05;101072.91;;;12.43;100.00
42385;BME280;28042;43.986;22.860;2023-05-18T03:09:32;101071.88;;;12.44;100.00
42385;BME280;28042;43.986;22.860;2023-05-18T03:11:57;101072.25;;;12.41;100.00
42385;BME280;28042;43.986;22.860;2023-05-18T03:14:23;101071.19;;;12.42;100.00
42385;BME280;28042;43.986;22.860;2023-05-18T03:16:48;101070.19;;;12.43;100.00
42385;BME280;28042;43.986;22.860;2023-05-18T03:19:18;101081.50;;;12.40;100.00
42385;BME280;28042;43.986;22.860;2023-05-18T03:21:43;101083.41;;;12.39;100.00
42385;BME280;28042;43.986;22.860;2023-05-18T03:24:09;101074.81;;;12.42;100.00
42385;BME280;28042;43.986;22.860;2023-05-18T03:26:38;101074.41;;;12.45;100.00
42385;BME280;28042;43.986;22.860;2023-05-18T03:29:05;101069.75;;;12.46;100.00
42385;BME280;28042;43.986;22.860;2023-05-18T03:31:31;101074.81;;;12.49;100.00
42385;BME280;28042;43.986;22.860;2023-05-18T03:33:56;101080.72;;;12.46;100.00
42385;BME280;28042;43.986;22.860;2023-05-18T03:36:21;101074.81;;;12.49;100.00
42385;BME280;28042;43.986;22.860;2023-05-18T03:38:49;101084.53;;;12.52;100.00
42385;BME280;28042;43.986;22.860;2023-05-18T03:41:14;101079.28;;;12.57;100.00
42385;BME280;28042;43.986;22.860;2023-05-18T03:43:40;101077.81;;;12.54;100.00
42385;BME280;28042;43.986;22.860;2023-05-18T03:46:05;101082.03;;;12.57;100.00
42385;BME280;28042;43.986;22.860;2023-05-18T03:48:30;101077.84;;;12.61;100.00
42385;BME280;28042;43.986;22.860;2023-05-18T03:50:56;101085.66;;;12.64;100.00
42385;BME280;28042;43.986;22.860;2023-05-18T03:53:21;101085.88;;;12.62;100.00
42385;BME280;28042;43.986;22.860;2023-05-18T03:55:47;101086.25;;;12.59;100.00
42385;BME280;28042;43.986;22.860;2023-05-18T03:58:15;101088.34;;;12.57;100.00
42385;BME280;28042;43.986;22.860;2023-05-18T04:00:41;101086.91;;;12.61;100.00
42385;BME280;28042;43.986;22.860;2023-05-18T04:03:09;101091.94;;;12.58;100.00
42385;BME280;28042;43.986;22.860;2023-05-18T04:05:39;101097.44;;;12.64;100.00
42385;BME280;28042;43.986;22.860;2023-05-18T04:08:06;101100.63;;;12.68;100.00
42385;BME280;28042;43.986;22.860;2023-05-18T04:10:32;101099.78;;;12.67;100.00
42385;BME280;28042;43.986;22.860;2023-05-18T04:12:58;101095.13;;;12.68;100.00
42385;BME280;28042;43.986;22.860;2023-05-18T04:15:23;101103.56;;;12.66;100.00
42385;BME280;28042;43.986;22.860;2023-05-18T04:17:49;101101.88;;;12.65;100.00
42385;BME280;28042;43.986;22.860;2023-05-18T04:20:15;101107.13;;;12.67;100.00
42385;BME280;28042;43.986;22.860;2023-05-18T04:22:44;101103.19;;;12.69;100.00
42385;BME280;28042;43.986;22.860;2023-05-18T04:25:13;101111.38;;;12.69;100.00
42385;BME280;28042;43.986;22.860;2023-05-18T04:27:39;101108.22;;;12.72;100.00
42385;BME280;28042;43.986;22.860;2023-05-18T04:30:06;101119.88;;;12.81;100.00
42385;BME280;28042;43.986;22.860;2023-05-18T04:32:32;101120.28;;;12.78;100.00
42385;BME280;28042;43.986;22.860;2023-05-18T04:35:01;101116.69;;;12.78;100.00
42385;BME280;28042;43.986;22.860;2023-05-18T04:37:26;101119.03;;;12.81;100.00
42385;BME280;28042;43.986;22.860;2023-05-18T04:39:52;101122.19;;;12.84;100.00
42385;BME280;28042;43.986;22.860;2023-05-18T04:42:18;101113.78;;;12.86;100.00
42385;BME280;28042;43.986;22.860;2023-05-18T04:44:43;101120.97;;;12.87;100.00
42385;BME280;28042;43.986;22.860;2023-05-18T04:47:09;101126.44;;;12.87;100.00
42385;BME280;28042;43.986;22.860;2023-05-18T04:49:34;101133.19;;;12.91;100.00
42385;BME280;28042;43.986;22.860;2023-05-18T04:51:59;101132.75;;;12.94;100.00
42385;BME280;28042;43.986;22.860;2023-05-18T04:54:25;101133.22;;;12.97;100.00
42385;BME280;28042;43.986;22.860;2023-05-18T04:56:52;101131.31;;;12.98;100.00
42385;BME280;28042;43.986;22.860;2023-05-18T04:59:17;101139.97;;;13.01;100.00
42385;BME280;28042;43.986;22.860;2023-05-18T05:01:45;101142.13;;;13.06;100.00
42385;BME280;28042;43.986;22.860;2023-05-18T05:04:10;101140.00;;;13.08;100.00
42385;BME280;28042;43.986;22.860;2023-05-18T05:06:36;101145.28;;;13.10;100.00
42385;BME280;28042;43.986;22.860;2023-05-18T05:09:01;101145.09;;;13.18;100.00
42385;BME280;28042;43.986;22.860;2023-05-18T05:11:27;101144.75;;;13.27;100.00
42385;BME280;28042;43.986;22.860;2023-05-18T05:13:52;101143.72;;;13.35;100.00
42385;BME280;28042;43.986;22.860;2023-05-18T05:16:17;101141.88;;;13.42;100.00
42385;BME280;28042;43.986;22.860;2023-05-18T05:18:43;101149.06;;;13.50;100.00
42385;BME280;28042;43.986;22.860;2023-05-18T05:21:08;101150.34;;;13.61;100.00
42385;BME280;28042;43.986;22.860;2023-05-18T05:23:34;101154.38;;;13.71;100.00
42385;BME280;28042;43.986;22.860;2023-05-18T05:25:59;101160.53;;;13.73;100.00
42385;BME280;28042;43.986;22.860;2023-05-18T05:28:25;101162.22;;;13.74;100.00
42385;BME280;28042;43.986;22.860;2023-05-18T05:30:50;101167.09;;;13.85;100.00
42385;BME280;28042;43.986;22.860;2023-05-18T05:33:16;101174.91;;;13.95;100.00
42385;BME280;28042;43.986;22.860;2023-05-18T05:35:41;101173.84;;;13.96;100.00
42385;BME280;28042;43.986;22.860;2023-05-18T05:38:07;101176.59;;;14.03;100.00
42385;BME280;28042;43.986;22.860;2023-05-18T05:40:32;101177.88;;;14.20;100.00
42385;BME280;28042;43.986;22.860;2023-05-18T05:42:57;101170.28;;;14.29;100.00
42385;BME280;28042;43.986;22.860;2023-05-18T05:45:23;101164.38;;;14.32;100.00
42385;BME280;28042;43.986;22.860;2023-05-18T05:47:48;101169.44;;;14.41;100.00
42385;BME280;28042;43.986;22.860;2023-05-18T05:50:14;101171.56;;;14.39;100.00
42385;BME280;28042;43.986;22.860;2023-05-18T05:52:39;101177.09;;;14.46;100.00
42385;BME280;28042;43.986;22.860;2023-05-18T05:55:05;101181.72;;;14.59;100.00
42385;BME280;28042;43.986;22.860;2023-05-18T05:57:30;101180.03;;;14.71;100.00
42385;BME280;28042;43.986;22.860;2023-05-18T05:59:55;101175.38;;;14.78;100.00
42385;BME280;28042;43.986;22.860;2023-05-18T06:02:21;101182.94;;;14.83;100.00
42385;BME280;28042;43.986;22.860;2023-05-18T06:04:46;101182.50;;;14.92;100.00
42385;BME280;28042;43.986;22.860;2023-05-18T06:07:12;101178.69;;;14.93;100.00
42385;BME280;28042;43.986;22.860;2023-05-18T06:09:37;101179.56;;;14.87;100.00
42385;BME280;28042;43.986;22.860;2023-05-18T06:12:03;101190.97;;;14.97;100.00
42385;BME280;28042;43.986;22.860;2023-05-18T06:14:28;101187.53;;;15.09;100.00
42385;BME280;28042;43.986;22.860;2023-05-18T06:16:54;101186.84;;;15.26;100.00
42385;BME280;28042;43.986;22.860;2023-05-18T06:19:19;101183.22;;;15.39;100.00
42385;BME280;28042;43.986;22.860;2023-05-18T06:21:44;101180.19;;;15.54;100.00
42385;BME280;28042;43.986;22.860;2023-05-18T06:24:10;101172.97;;;15.66;100.00
42385;BME280;28042;43.986;22.860;2023-05-18T06:26:35;101169.47;;;15.84;100.00
42385;BME280;28042;43.986;22.860;2023-05-18T06:29:00;101170.19;;;16.04;100.00
42385;BME280;28042;43.986;22.860;2023-05-18T06:31:26;101176.00;;;16.21;100.00
42385;BME280;28042;43.986;22.860;2023-05-18T06:33:52;101177.97;;;16.39;100.00
42385;BME280;28042;43.986;22.860;2023-05-18T06:36:17;101179.09;;;16.56;100.00
42385;BME280;28042;43.986;22.860;2023-05-18T06:38:42;101169.06;;;16.69;100.00
42385;BME280;28042;43.986;22.860;2023-05-18T06:41:08;101171.69;;;16.82;100.00
42385;BME280;28042;43.986;22.860;2023-05-18T06:43:33;101166.03;;;16.95;100.00
42385;BME280;28042;43.986;22.860;2023-05-18T06:45:58;101164.50;;;16.99;100.00
42385;BME280;28042;43.986;22.860;2023-05-18T06:48:25;101162.34;;;17.19;100.00
42385;BME280;28042;43.986;22.860;2023-05-18T06:50:50;101163.88;;;17.15;100.00
42385;BME280;28042;43.986;22.860;2023-05-18T06:53:16;101158.38;;;17.34;100.00
42385;BME280;28042;43.986;22.860;2023-05-18T06:55:41;101156.69;;;17.63;100.00
42385;BME280;28042;43.986;22.860;2023-05-18T06:58:06;101158.09;;;17.72;100.00
42385;BME280;28042;43.986;22.860;2023-05-18T07:00:32;101153.97;;;17.93;100.00
42385;BME280;28042;43.986;22.860;2023-05-18T07:02:57;101159.94;;;18.31;100.00
42385;BME280;28042;43.986;22.860;2023-05-18T07:05:23;101156.41;;;18.66;100.00
42385;BME280;28042;43.986;22.860;2023-05-18T07:07:48;101154.22;;;18.91;100.00
42385;BME280;28042;43.986;22.860;2023-05-18T07:10:13;101157.47;;;19.12;100.00
42385;BME280;28042;43.986;22.860;2023-05-18T07:12:39;101155.06;;;18.92;100.00
42385;BME280;28042;43.986;22.860;2023-05-18T07:15:04;101158.53;;;18.64;100.00
42385;BME280;28042;43.986;22.860;2023-05-18T07:17:30;101162.50;;;18.45;100.00
42385;BME280;28042;43.986;22.860;2023-05-18T07:19:55;101160.06;;;18.25;100.00
42385;BME280;28042;43.986;22.860;2023-05-18T07:22:20;101167.03;;;18.39;100.00
42385;BME280;28042;43.986;22.860;2023-05-18T07:24:46;101167.50;;;18.24;100.00
42385;BME280;28042;43.986;22.860;2023-05-18T07:27:11;101169.31;;;18.30;100.00
42385;BME280;28042;43.986;22.860;2023-05-18T07:29:36;101170.94;;;18.08;100.00
42385;BME280;28042;43.986;22.860;2023-05-18T07:32:02;101167.84;;;18.16;100.00
42385;BME280;28042;43.986;22.860;2023-05-18T07:34:27;101172.53;;;18.16;100.00
42385;BME280;28042;43.986;22.860;2023-05-18T07:36:52;101168.31;;;18.13;100.00
42385;BME280;28042;43.986;22.860;2023-05-18T07:39:18;101180.34;;;18.30;100.00
42385;BME280;28042;43.986;22.860;2023-05-18T07:41:46;101172.09;;;18.54;100.00
42385;BME280;28042;43.986;22.860;2023-05-18T07:44:13;101173.94;;;18.72;100.00
42385;BME280;28042;43.986;22.860;2023-05-18T07:46:39;101162.75;;;19.13;100.00
42385;BME280;28042;43.986;22.860;2023-05-18T07:49:04;101170.28;;;19.18;98.65
42385;BME280;28042;43.986;22.860;2023-05-18T07:51:30;101173.56;;;18.91;96.64
42385;BME280;28042;43.986;22.860;2023-05-18T07:53:55;101177.78;;;18.82;95.90
42385;BME280;28042;43.986;22.860;2023-05-18T07:56:21;101177.03;;;19.22;94.65
42385;BME280;28042;43.986;22.860;2023-05-18T07:58:48;101170.09;;;18.96;97.57
42385;BME280;28042;43.986;22.860;2023-05-18T08:01:13;101179.34;;;19.02;100.00
42385;BME280;28042;43.986;22.860;2023-05-18T08:03:38;101183.31;;;18.82;100.00
42385;BME280;28042;43.986;22.860;2023-05-18T08:06:04;101184.75;;;18.73;98.61
42385;BME280;28042;43.986;22.860;2023-05-18T08:08:29;101188.94;;;18.64;100.00
42385;BME280;28042;43.986;22.860;2023-05-18T08:10:55;101188.69;;;18.54;100.00
42385;BME280;28042;43.986;22.860;2023-05-18T08:13:20;101196.53;;;18.80;100.00
42385;BME280;28042;43.986;22.860;2023-05-18T08:15:46;101192.78;;;19.22;100.00
42385;BME280;28042;43.986;22.860;2023-05-18T08:18:11;101190.78;;;19.45;100.00
42385;BME280;28042;43.986;22.860;2023-05-18T08:20:36;101201.34;;;20.00;100.00
42385;BME280;28042;43.986;22.860;2023-05-18T08:23:02;101203.22;;;20.12;95.99
42385;BME280;28042;43.986;22.860;2023-05-18T08:25:28;101200.53;;;20.00;94.75
42385;BME280;28042;43.986;22.860;2023-05-18T08:27:53;101207.50;;;19.74;99.18
42385;BME280;28042;43.986;22.860;2023-05-18T08:30:18;101205.91;;;19.78;97.34
42385;BME280;28042;43.986;22.860;2023-05-18T08:32:46;101205.94;;;19.66;95.86
42385;BME280;28042;43.986;22.860;2023-05-18T08:35:11;101205.56;;;19.63;98.95
42385;BME280;28042;43.986;22.860;2023-05-18T08:37:36;101214.56;;;19.30;100.00
42385;BME280;28042;43.986;22.860;2023-05-18T08:40:04;101214.09;;;18.98;100.00
42385;BME280;28042;43.986;22.860;2023-05-18T08:47:52;101217.25;;;18.48;100.00
42385;BME280;28042;43.986;22.860;2023-05-18T08:50:20;101224.69;;;18.35;100.00
42385;BME280;28042;43.986;22.860;2023-05-18T08:52:49;101228.66;;;18.40;100.00
42385;BME280;28042;43.986;22.860;2023-05-18T08:55:15;101224.44;;;18.25;100.00
42385;BME280;28042;43.986;22.860;2023-05-18T08:57:41;101230.28;;;18.17;100.00
42385;BME280;28042;43.986;22.860;2023-05-18T09:00:08;101233.44;;;18.32;100.00
42385;BME280;28042;43.986;22.860;2023-05-18T09:02:36;101237.16;;;17.96;100.00
42385;BME280;28042;43.986;22.860;2023-05-18T09:05:02;101240.78;;;17.60;100.00
42385;BME280;28042;43.986;22.860;2023-05-18T09:07:27;101243.22;;;17.68;100.00
42385;BME280;28042;43.986;22.860;2023-05-18T09:09:53;101240.63;;;17.92;100.00
42385;BME280;28042;43.986;22.860;2023-05-18T09:12:19;101233.97;;;18.11;100.00
42385;BME280;28042;43.986;22.860;2023-05-18T09:14:46;101241.59;;;18.27;100.00
42385;BME280;28042;43.986;22.860;2023-05-18T09:17:12;101250.16;;;18.38;100.00
42385;BME280;28042;43.986;22.860;2023-05-18T09:19:38;101245.03;;;18.53;100.00
42385;BME280;28042;43.986;22.860;2023-05-18T09:22:03;101251.75;;;18.57;100.00
42385;BME280;28042;43.986;22.860;2023-05-18T09:24:29;101252.03;;;18.67;100.00
42385;BME280;28042;43.986;22.860;2023-05-18T09:26:54;101249.22;;;18.55;100.00
42385;BME280;28042;43.986;22.860;2023-05-18T09:29:20;101248.25;;;18.08;100.00
42385;BME280;28042;43.986;22.860;2023-05-18T09:31:45;101259.34;;;17.90;100.00
42385;BME280;28042;43.986;22.860;2023-05-18T09:34:11;101270.72;;;17.82;100.00
42385;BME280;28042;43.986;22.860;2023-05-18T09:36:37;101263.34;;;18.05;100.00
42385;BME280;28042;43.986;22.860;2023-05-18T09:39:06;101260.34;;;18.25;100.00
42385;BME280;28042;43.986;22.860;2023-05-18T09:41:32;101260.22;;;18.32;100.00
42385;BME280;28042;43.986;22.860;2023-05-18T09:43:57;101261.91;;;18.33;100.00
42385;BME280;28042;43.986;22.860;2023-05-18T09:46:23;101265.84;;;18.25;100.00
42385;BME280;28042;43.986;22.860;2023-05-18T09:48:49;101269.22;;;18.27;100.00
42385;BME280;28042;43.986;22.860;2023-05-18T09:51:15;101234.97;;;18.17;100.00
42385;BME280;28042;43.986;22.860;2023-05-18T09:54:03;101262.38;;;18.30;100.00
42385;BME280;28042;43.986;22.860;2023-05-18T09:56:29;101266.84;;;18.01;100.00
42385;BME280;28042;43.986;22.860;2023-05-18T09:58:55;101272.16;;;18.14;100.00
42385;BME280;28042;43.986;22.860;2023-05-18T10:01:20;101267.88;;;18.18;100.00
42385;BME280;28042;43.986;22.860;2023-05-18T10:03:46;101269.00;;;17.99;100.00
42385;BME280;28042;43.986;22.860;2023-05-18T10:06:13;101274.19;;;18.07;100.00
42385;BME280;28042;43.986;22.860;2023-05-18T10:08:39;101270.97;;;18.10;100.00
42385;BME280;28042;43.986;22.860;2023-05-18T10:11:04;101274.03;;;18.02;100.00
42385;BME280;28042;43.986;22.860;2023-05-18T10:13:30;101273.25;;;18.13;100.00
42385;BME280;28042;43.986;22.860;2023-05-18T10:15:57;101276.03;;;17.95;100.00
42385;BME280;28042;43.986;22.860;2023-05-18T10:18:26;101277.28;;;17.99;100.00
42385;BME280;28042;43.986;22.860;2023-05-18T10:20:53;101283.53;;;18.06;100.00
42385;BME280;28042;43.986;22.860;2023-05-18T10:23:19;101280.75;;;18.24;100.00
42385;BME280;28042;43.986;22.860;2023-05-18T10:25:46;101289.91;;;18.36;100.00
42385;BME280;28042;43.986;22.860;2023-05-18T10:28:13;101283.22;;;18.56;100.00
42385;BME280;28042;43.986;22.860;2023-05-18T10:30:41;101276.84;;;18.85;100.00
42385;BME280;28042;43.986;22.860;2023-05-18T10:33:07;101272.75;;;19.00;100.00
42385;BME280;28042;43.986;22.860;2023-05-18T10:35:34;101278.50;;;18.75;100.00
42385;BME280;28042;43.986;22.860;2023-05-18T10:37:59;101279.72;;;18.49;100.00
42385;BME280;28042;43.986;22.860;2023-05-18T10:40:26;101279.97;;;18.77;100.00
42385;BME280;28042;43.986;22.860;2023-05-18T10:42:52;101284.56;;;18.95;100.00
42385;BME280;28042;43.986;22.860;2023-05-18T10:45:20;101277.56;;;19.16;100.00
42385;BME280;28042;43.986;22.860;2023-05-18T10:47:46;101279.03;;;19.30;100.00
42385;BME280;28042;43.986;22.860;2023-05-18T10:50:11;101275.28;;;19.48;100.00
42385;BME280;28042;43.986;22.860;2023-05-18T10:52:38;101264.31;;;19.65;99.26
42385;BME280;28042;43.986;22.860;2023-05-18T10:55:04;101279.03;;;19.94;95.63
42385;BME280;28042;43.986;22.860;2023-05-18T10:57:38;101282.31;;;20.19;94.38
42385;BME280;28042;43.986;22.860;2023-05-18T11:00:05;101288.06;;;19.89;97.67
42385;BME280;28042;43.986;22.860;2023-05-18T11:02:31;101286.41;;;19.88;95.90
42385;BME280;28042;43.986;22.860;2023-05-18T11:04:57;101288.56;;;19.86;93.37
42385;BME280;28042;43.986;22.860;2023-05-18T11:07:22;101285.97;;;19.68;93.10
42385;BME280;28042;43.986;22.860;2023-05-18T11:09:49;101291.88;;;19.60;93.49
42385;BME280;28042;43.986;22.860;2023-05-18T11:12:17;101290.31;;;19.40;92.19
42385;BME280;28042;43.986;22.860;2023-05-18T11:14:46;101293.78;;;19.36;94.70
42385;BME280;28042;43.986;22.860;2023-05-18T11:17:22;101293.44;;;19.32;95.36
42385;BME280;28042;43.986;22.860;2023-05-18T11:27:59;101296.16;;;20.19;88.64
42385;BME280;28042;43.986;22.860;2023-05-18T11:30:29;101298.34;;;20.17;85.28
42385;BME280;28042;43.986;22.860;2023-05-18T11:33:14;101297.66;;;20.39;85.51
42385;BME280;28042;43.986;22.860;2023-05-18T11:35:54;101290.63;;;20.48;86.90
42385;BME280;28042;43.986;22.860;2023-05-18T11:38:19;101287.28;;;20.46;82.98
42385;BME280;28042;43.986;22.860;2023-05-18T11:40:46;101285.97;;;20.37;83.37
42385;BME280;28042;43.986;22.860;2023-05-18T11:43:24;101300.88;;;20.47;82.23
42385;BME280;28042;43.986;22.860;2023-05-18T11:45:53;101290.31;;;20.16;82.75
42385;BME280;28042;43.986;22.860;2023-05-18T11:48:22;101302.44;;;20.15;84.21
42385;BME280;28042;43.986;22.860;2023-05-18T11:50:47;101298.38;;;20.05;81.58
42385;BME280;28042;43.986;22.860;2023-05-18T11:53:14;101292.25;;;20.32;77.68
42385;BME280;28042;43.986;22.860;2023-05-18T11:55:40;101299.22;;;20.46;77.55
42385;BME280;28042;43.986;22.860;2023-05-18T11:58:05;101295.47;;;20.41;77.52
42385;BME280;28042;43.986;22.860;2023-05-18T12:00:31;101300.78;;;20.42;79.68
42385;BME280;28042;43.986;22.860;2023-05-18T12:02:57;101304.81;;;20.80;72.62
42385;BME280;28042;43.986;22.860;2023-05-18T12:05:25;101292.88;;;20.96;73.72
42385;BME280;28042;43.986;22.860;2023-05-18T12:07:54;101299.09;;;20.70;69.40
42385;BME280;28042;43.986;22.860;2023-05-18T12:10:20;101297.31;;;20.64;72.30
42385;BME280;28042;43.986;22.860;2023-05-18T12:12:52;101297.75;;;20.89;74.78
42385;BME280;28042;43.986;22.860;2023-05-18T12:15:20;101297.06;;;20.99;68.03
42385;BME280;28042;43.986;22.860;2023-05-18T12:17:46;101296.75;;;21.29;70.89
42385;BME280;28042;43.986;22.860;2023-05-18T12:20:13;101291.50;;;21.49;69.01
42385;BME280;28042;43.986;22.860;2023-05-18T12:22:39;101290.22;;;21.79;70.52
42385;BME280;28042;43.986;22.860;2023-05-18T12:25:06;101296.38;;;21.81;66.79
42385;BME280;28042;43.986;22.860;2023-05-18T12:27:39;101283.38;;;21.64;65.53
42385;BME280;28042;43.986;22.860;2023-05-18T12:30:08;101290.81;;;21.81;66.97
42385;BME280;28042;43.986;22.860;2023-05-18T12:32:34;101304.06;;;21.73;66.47
42385;BME280;28042;43.986;22.860;2023-05-18T12:34:59;101311.66;;;21.61;66.98
42385;BME280;28042;43.986;22.860;2023-05-18T12:37:24;101319.03;;;21.72;65.96
42385;BME280;28042;43.986;22.860;2023-05-18T12:39:53;101314.81;;;21.70;66.27
42385;BME280;28042;43.986;22.860;2023-05-18T12:42:18;101309.34;;;21.97;66.67
42385;BME280;28042;43.986;22.860;2023-05-18T12:44:44;101307.44;;;22.19;64.83
42385;BME280;28042;43.986;22.860;2023-05-18T12:47:12;101309.88;;;21.94;63.07
42385;BME280;28042;43.986;22.860;2023-05-18T12:49:38;101302.59;;;22.10;62.01
42385;BME280;28042;43.986;22.860;2023-05-18T12:52:08;101309.34;;;21.97;62.16